createdAt,value
2022-11-17T00:00:31.649Z,100018.16
2022-11-17T00:02:33.957Z,100019.31
2022-11-17T00:04:35.592Z,100016.13
2022-11-17T00:06:37.162Z,100029.31
2022-11-17T00:08:38.713Z,100027.03
2022-11-17T00:10:41.697Z,100017.53
2022-11-17T00:12:43.591Z,100014.84
2022-11-17T00:14:45.208Z,100010.19
2022-11-17T00:16:49.224Z,100010.06
2022-11-17T00:18:50.834Z,100013.06
2022-11-17T00:20:52.239Z,100005.28
2022-11-17T00:22:53.810Z,100011.22
2022-11-17T00:24:55.397Z,99994.84
2022-11-17T00:26:58.452Z,100011.22
2022-11-17T00:29:01.906Z,100010.47
2022-11-17T00:31:03.694Z,100008.88
2022-11-17T00:33:05.260Z,100002.69
2022-11-17T00:35:07.281Z,100003.69
2022-11-17T00:37:10.818Z,99997.84
2022-11-17T00:39:13.771Z,99979.66
2022-11-17T00:41:15.391Z,100019.22
2022-11-17T00:43:18.089Z,99988.53
2022-11-17T00:45:19.643Z,99989.44
2022-11-17T00:47:21.272Z,99993.66
2022-11-17T00:49:22.689Z,99990.34
2022-11-17T00:51:24.493Z,99999.22
2022-11-17T00:53:26.064Z,99999.22
2022-11-17T00:55:27.665Z,99998.31
2022-11-17T00:57:29.018Z,99988.69
2022-11-17T00:59:31.956Z,99990.28
2022-11-17T01:01:33.728Z,99989.19
2022-11-17T01:03:36.171Z,99997.16
2022-11-17T01:05:38.080Z,99997.50
2022-11-17T01:07:39.731Z,99991.91
2022-11-17T01:09:41.121Z,99998.38
2022-11-17T01:11:43.370Z,99996.72
2022-11-17T01:13:46.660Z,100006.53
2022-11-17T01:15:49.683Z,99989.94
2022-11-17T01:17:51.639Z,99985.25
2022-11-17T01:19:53.234Z,99979.75
2022-11-17T01:21:54.789Z,99983.31
2022-11-17T01:23:57.950Z,99980.84
2022-11-17T01:26:04.927Z,99983.94
2022-11-17T01:28:06.495Z,99973.41
2022-11-17T01:30:09.584Z,99981.53
2022-11-17T01:32:12.527Z,99966.03
2022-11-17T01:34:14.079Z,99972.78
2022-11-17T01:36:17.892Z,99962.00
2022-11-17T01:38:19.441Z,99972.53
2022-11-17T01:40:21.131Z,99972.47
2022-11-17T01:42:24.121Z,99967.03
2022-11-17T01:44:55.051Z,99958.34
2022-11-17T01:47:00.759Z,99967.53
2022-11-17T01:49:11.078Z,99956.31
2022-11-17T01:51:14.548Z,99962.75
2022-11-17T01:53:20.006Z,99957.66
2022-11-17T01:55:24.290Z,99944.59
2022-11-17T01:57:31.432Z,99958.34
2022-11-17T01:59:38.434Z,99954.28
2022-11-17T02:01:40.334Z,99954.25
2022-11-17T02:03:44.104Z,99958.16
2022-11-17T02:05:54.791Z,99959.31
2022-11-17T02:07:59.675Z,99954.28
2022-11-17T02:10:02.518Z,99961.03
2022-11-17T02:12:06.128Z,99966.56
2022-11-17T02:14:08.571Z,99969.25
2022-11-17T02:16:12.132Z,99963.19
2022-11-17T02:18:14.065Z,99956.00
2022-11-17T02:20:22.688Z,99963.69
2022-11-17T02:22:55.431Z,99957.00
2022-11-17T02:25:13.808Z,99945.28
2022-11-17T02:27:58.708Z,99954.66
2022-11-17T02:30:03.417Z,99961.34
2022-11-17T02:32:08.443Z,99951.84
2022-11-17T02:34:23.226Z,99949.41
2022-11-17T02:36:32.946Z,99943.88
2022-11-17T02:38:41.322Z,99945.41
2022-11-17T02:40:47.489Z,99944.81
2022-11-17T02:42:54.634Z,99943.50
2022-11-17T02:45:02.764Z,99926.53
2022-11-17T02:47:10.499Z,99937.50
2022-11-17T02:49:18.407Z,99934.06
2022-11-17T02:51:22.330Z,99931.88
2022-11-17T02:53:25.669Z,99940.81
2022-11-17T02:55:27.301Z,99923.97
2022-11-17T02:57:29.241Z,99932.91
2022-11-17T02:59:34.271Z,99938.19
2022-11-17T03:02:01.557Z,99918.94
2022-11-17T03:04:21.754Z,99922.50
2022-11-17T03:06:32.100Z,99919.88
2022-11-17T03:08:44.493Z,99921.22
2022-11-17T03:10:56.878Z,99917.16
2022-11-17T03:13:05.841Z,99926.13
2022-11-17T03:15:15.107Z,99920.22
2022-11-17T03:17:21.935Z,99922.84
2022-11-17T03:19:29.200Z,99913.81
2022-11-17T03:21:36.414Z,99910.88
2022-11-17T03:23:42.674Z,99911.63
2022-11-17T03:25:51.252Z,99911.53
2022-11-17T03:27:57.343Z,99917.13
2022-11-17T03:30:02.665Z,99909.91
2022-11-17T03:32:08.028Z,99918.84
2022-11-17T03:34:15.480Z,99912.38
2022-11-17T03:36:20.098Z,99892.00
2022-11-17T03:38:24.834Z,99918.28
2022-11-17T03:40:29.362Z,99925.50
2022-11-17T03:42:34.498Z,99920.09
2022-11-17T03:44:39.732Z,99915.22
2022-11-17T03:46:43.803Z,99916.06
2022-11-17T03:48:50.330Z,99915.69
2022-11-17T03:50:59.090Z,99911.53
2022-11-17T03:53:02.444Z,99922.75
2022-11-17T03:55:05.920Z,99913.84
2022-11-17T03:57:12.997Z,99897.09
2022-11-17T03:59:19.664Z,99908.41
2022-11-17T04:01:22.624Z,99904.19
2022-11-17T04:03:29.760Z,99907.75
2022-11-17T04:05:31.448Z,99897.81
2022-11-17T04:07:34.948Z,99895.13
2022-11-17T04:09:36.601Z,99903.16
2022-11-17T04:11:38.033Z,99907.38
2022-11-17T04:13:39.747Z,99899.66
2022-11-17T04:15:41.347Z,99892.72
2022-11-17T04:17:43.320Z,99896.97
2022-11-17T04:19:44.863Z,99901.13
2022-11-17T04:21:46.451Z,99896.84
2022-11-17T04:23:49.383Z,99891.44
2022-11-17T04:25:52.822Z,99881.28
2022-11-17T04:27:54.527Z,99891.69
2022-11-17T04:29:56.073Z,99883.41
2022-11-17T04:31:57.674Z,99894.50
2022-11-17T04:33:59.813Z,99901.91
2022-11-17T04:36:01.469Z,99884.09
2022-11-17T04:38:02.865Z,99880.91
2022-11-17T04:40:07.725Z,99882.38
2022-11-17T04:42:09.342Z,99883.22
2022-11-17T04:44:11.743Z,99885.81
2022-11-17T04:46:13.428Z,99874.22
2022-11-17T04:48:14.810Z,99875.50
2022-11-17T04:50:16.820Z,99872.16
2022-11-17T04:52:18.430Z,99867.78
2022-11-17T04:54:20.792Z,99870.25
2022-11-17T04:56:24.554Z,99866.69
2022-11-17T04:58:26.458Z,99873.69
2022-11-17T05:00:28.020Z,99865.97
2022-11-17T05:02:29.603Z,99868.91
2022-11-17T05:04:31.072Z,99864.84
2022-11-17T05:06:33.843Z,99862.28
2022-11-17T05:08:36.750Z,99866.56
2022-11-17T05:10:38.629Z,99866.44
2022-11-17T05:12:41.684Z,99876.84
2022-11-17T05:14:43.311Z,99869.63
2022-11-17T05:16:44.744Z,99874.88
2022-11-17T05:18:46.310Z,99857.75
2022-11-17T05:20:47.866Z,99861.41
2022-11-17T05:22:49.457Z,99862.41
2022-11-17T05:24:51.072Z,99846.53
2022-11-17T05:26:52.919Z,99844.28
2022-11-17T05:28:57.658Z,99849.91
2022-11-17T05:30:59.297Z,99844.38
2022-11-17T05:33:00.671Z,99848.66
2022-11-17T05:35:03.267Z,99826.25
2022-11-17T05:37:04.812Z,99841.56
2022-11-17T05:39:07.862Z,99838.13
2022-11-17T05:41:09.669Z,99834.44
2022-11-17T05:43:11.220Z,99846.03
2022-11-17T05:45:14.191Z,99843.66
2022-11-17T05:47:15.983Z,99844.59
2022-11-17T05:49:17.547Z,99844.25
2022-11-17T05:51:20.384Z,99829.31
2022-11-17T05:53:23.205Z,99838.59
2022-11-17T05:55:25.135Z,99831.94
2022-11-17T05:57:31.735Z,99822.72
2022-11-17T05:59:39.501Z,99827.66
2022-11-17T06:01:46.762Z,99839.91
2022-11-17T06:03:53.657Z,99842.63
2022-11-17T06:05:55.777Z,99848.69
2022-11-17T06:07:57.379Z,99842.63
2022-11-17T06:09:58.775Z,99844.94
2022-11-17T06:12:05.559Z,99838.13
2022-11-17T06:14:07.609Z,99830.44
2022-11-17T06:16:12.027Z,99826.41
2022-11-17T06:18:18.322Z,99813.38
2022-11-17T06:20:24.433Z,99829.84
2022-11-17T06:22:26.839Z,99818.56
2022-11-17T06:24:28.792Z,99816.00
2022-11-17T06:26:30.370Z,99807.31
2022-11-17T06:28:33.901Z,99816.00
2022-11-17T06:30:37.119Z,99822.78
2022-11-17T06:32:41.747Z,99811.09
2022-11-17T06:34:52.103Z,99808.47
2022-11-17T06:36:56.683Z,99821.63
2022-11-17T06:38:58.355Z,99817.28
2022-11-17T06:40:59.737Z,99809.16
2022-11-17T06:43:01.479Z,99824.03
2022-11-17T06:45:03.166Z,99818.38
2022-11-17T06:47:04.593Z,99804.75
2022-11-17T06:49:06.955Z,99800.53
2022-11-17T06:51:09.916Z,99803.84
2022-11-17T06:53:12.412Z,99800.34
2022-11-17T06:55:14.268Z,99796.13
2022-11-17T06:57:15.983Z,99794.38
2022-11-17T06:59:17.427Z,99785.59
2022-11-17T07:01:19.761Z,99792.81
2022-11-17T07:03:21.421Z,99790.84
2022-11-17T07:05:22.985Z,99788.66
2022-11-17T07:07:26.040Z,99789.25
2022-11-17T07:09:27.664Z,99792.66
2022-11-17T07:11:29.057Z,99789.25
2022-11-17T07:13:33.188Z,99786.44
2022-11-17T07:15:34.716Z,99790.59
2022-11-17T07:17:36.234Z,99786.28
2022-11-17T07:19:37.780Z,99782.59
2022-11-17T07:21:39.446Z,99782.03
2022-11-17T07:23:42.783Z,99791.50
2022-11-17T07:25:44.343Z,99790.31
2022-11-17T07:27:45.996Z,99798.09
2022-11-17T07:29:47.329Z,99806.00
2022-11-17T07:31:48.914Z,99801.72
2022-11-17T07:33:50.245Z,99793.34
2022-11-17T07:35:51.798Z,99799.06
2022-11-17T07:37:57.109Z,99797.28
2022-11-17T07:40:00.380Z,99789.78
2022-11-17T07:42:01.940Z,99802.84
2022-11-17T07:44:03.830Z,99804.16
2022-11-17T07:46:06.926Z,99790.25
2022-11-17T07:48:08.432Z,99788.91
2022-11-17T07:50:10.247Z,99791.47
2022-11-17T07:52:11.776Z,99805.59
2022-11-17T07:54:13.320Z,99796.47
2022-11-17T07:56:16.304Z,99804.19
2022-11-17T07:58:17.910Z,99809.25
2022-11-17T08:00:19.468Z,99797.91
2022-11-17T08:02:21.056Z,99796.31
2022-11-17T08:04:22.459Z,99794.97
2022-11-17T08:06:24.375Z,99795.78
2022-11-17T08:08:26.104Z,99777.00
2022-11-17T08:10:28.340Z,99783.22
2022-11-17T08:12:31.302Z,99783.00
2022-11-17T08:14:32.919Z,99770.97
2022-11-17T08:16:34.232Z,99782.94
2022-11-17T08:18:36.779Z,99780.09
2022-11-17T08:20:38.580Z,99776.81
2022-11-17T08:22:40.311Z,99771.94
2022-11-17T08:24:41.927Z,99771.66
2022-11-17T08:26:43.478Z,99764.81
2022-11-17T08:28:46.866Z,99756.41
2022-11-17T08:30:48.612Z,99769.09
2022-11-17T08:32:51.729Z,99766.09
2022-11-17T08:34:53.622Z,99776.53
2022-11-17T08:36:55.221Z,99763.97
2022-11-17T08:38:56.610Z,99768.59
2022-11-17T08:40:59.221Z,99771.09
2022-11-17T08:43:01.660Z,99766.88
2022-11-17T08:45:05.753Z,99767.38
2022-11-17T08:47:07.385Z,99761.97
2022-11-17T08:49:08.873Z,99756.56
2022-11-17T08:51:13.411Z,99770.97
2022-11-17T08:53:16.109Z,99774.81
2022-11-17T08:55:17.698Z,99775.22
2022-11-17T08:57:19.131Z,99774.81
2022-11-17T08:59:21.011Z,99772.94
2022-11-17T09:01:24.121Z,99769.25
2022-11-17T09:03:25.934Z,99777.53
2022-11-17T09:05:27.445Z,99774.53
2022-11-17T09:07:34.729Z,99767.97
2022-11-17T09:09:36.641Z,99783.38
2022-11-17T09:11:38.302Z,99782.88
2022-11-17T09:13:39.732Z,99782.22
2022-11-17T09:15:41.319Z,99789.63
2022-11-17T09:17:44.027Z,99779.22
2022-11-17T09:19:48.244Z,99773.94
2022-11-17T09:21:49.839Z,99787.06
2022-11-17T09:23:51.487Z,99785.38
2022-11-17T09:25:52.926Z,99789.34
2022-11-17T09:27:54.944Z,99792.13
2022-11-17T09:29:56.481Z,99791.56
2022-11-17T09:31:58.104Z,99793.22
2022-11-17T09:34:05.270Z,99786.72
2022-11-17T09:36:08.598Z,99782.94
2022-11-17T09:38:10.161Z,99793.22
2022-11-17T09:40:15.073Z,99782.78
2022-11-17T09:42:19.061Z,99786.94
2022-11-17T09:44:34.348Z,99787.44
2022-11-17T09:46:51.775Z,99782.22
2022-11-17T09:48:58.745Z,99782.00
2022-11-17T09:51:04.123Z,99779.38
2022-11-17T09:53:15.095Z,99784.50
2022-11-17T09:55:31.140Z,99780.31
2022-11-17T09:57:40.366Z,99767.69
2022-11-17T09:59:42.097Z,99785.50
2022-11-17T10:01:43.815Z,99785.38
2022-11-17T10:03:47.368Z,99779.88
2022-11-17T10:05:49.703Z,99787.78
2022-11-17T10:07:54.714Z,99779.09
2022-11-17T10:09:57.259Z,99772.66
2022-11-17T10:12:13.290Z,99773.66
2022-11-17T10:14:16.699Z,99780.00
2022-11-17T10:16:18.234Z,99762.47
2022-11-17T10:18:19.880Z,99761.53
2022-11-17T10:20:21.365Z,99771.81
2022-11-17T10:22:33.885Z,99760.13
2022-11-17T10:24:39.386Z,99762.09
2022-11-17T10:26:46.594Z,99762.97
2022-11-17T10:28:48.406Z,99761.13
2022-11-17T10:30:53.785Z,99760.81
2022-11-17T10:32:56.906Z,99762.31
2022-11-17T10:35:13.590Z,99752.84
2022-11-17T10:37:29.906Z,99723.81
2022-11-17T10:39:34.196Z,99744.28
2022-11-17T10:41:40.663Z,99749.41
2022-11-17T10:43:54.460Z,99749.56
2022-11-17T10:45:58.542Z,99749.97
2022-11-17T10:48:24.555Z,99733.88
2022-11-17T10:50:27.189Z,99733.16
2022-11-17T10:52:28.866Z,99719.88
2022-11-17T10:54:30.188Z,99733.00
2022-11-17T10:56:38.498Z,99723.19
2022-11-17T10:59:01.628Z,99718.03
2022-11-17T11:01:04.332Z,99730.03
2022-11-17T11:03:15.907Z,99726.31
2022-11-17T11:05:19.007Z,99717.59
2022-11-17T11:07:23.763Z,99717.16
2022-11-17T11:09:26.595Z,99726.00
2022-11-17T11:11:37.935Z,99708.31
2022-11-17T11:13:48.277Z,99724.59
2022-11-17T11:15:51.550Z,99711.88
2022-11-17T11:17:53.242Z,99712.69
2022-11-17T11:19:54.988Z,99703.34
2022-11-17T11:22:21.457Z,99711.78
2022-11-17T11:24:32.746Z,99697.91
2022-11-17T11:26:49.678Z,99694.22
2022-11-17T11:29:04.677Z,99696.41
2022-11-17T11:31:18.697Z,99690.44
2022-11-17T11:33:34.133Z,99676.78
2022-11-17T11:35:49.978Z,99691.22
2022-11-17T11:37:58.658Z,99706.34
2022-11-17T11:40:09.751Z,99684.53
2022-11-17T11:42:25.166Z,99686.22
2022-11-17T11:44:46.921Z,99678.38
2022-11-17T11:46:56.634Z,99679.94
2022-11-17T11:49:08.178Z,99662.81
2022-11-17T11:51:15.166Z,99672.66
2022-11-17T11:53:22.147Z,99681.28
2022-11-17T11:55:27.717Z,99679.50
2022-11-17T11:57:35.360Z,99673.50
2022-11-17T11:59:42.842Z,99674.22
2022-11-17T12:01:54.561Z,99663.66
2022-11-17T12:04:13.708Z,99665.28
2022-11-17T12:06:24.934Z,99674.75
2022-11-17T12:08:32.376Z,99672.81
2022-11-17T12:10:39.142Z,99663.66
2022-11-17T12:12:43.436Z,99677.63
2022-11-17T12:15:08.596Z,99667.06
2022-11-17T12:17:18.379Z,99668.56
2022-11-17T12:19:55.959Z,99669.47
2022-11-17T12:21:57.546Z,99671.91
2022-11-17T12:24:12.986Z,99668.31
2022-11-17T12:26:24.056Z,99671.75
2022-11-17T12:28:32.687Z,99664.91
2022-11-17T12:30:56.174Z,99671.19
2022-11-17T12:32:58.591Z,99661.03
2022-11-17T12:35:23.695Z,99669.25
2022-11-17T12:37:25.255Z,99670.34
2022-11-17T12:40:06.631Z,99667.22
2022-11-17T12:42:08.246Z,99660.38
2022-11-17T12:44:24.460Z,99660.53
2022-11-17T12:46:26.461Z,99660.94
2022-11-17T12:48:34.426Z,99658.94
2022-11-17T12:50:51.947Z,99653.69
2022-11-17T12:53:06.052Z,99667.69
2022-11-17T12:55:17.697Z,99657.44
2022-11-17T12:57:26.883Z,99658.22
2022-11-17T12:59:55.933Z,99669.09
2022-11-17T13:02:03.933Z,99664.81
2022-11-17T13:04:10.249Z,99656.50
2022-11-17T13:08:37.245Z,99658.06
2022-11-17T13:10:39.038Z,99648.91
2022-11-17T13:12:40.653Z,99649.53
2022-11-17T13:14:51.721Z,99665.38
2022-11-17T13:16:53.358Z,99651.69
2022-11-17T13:18:54.750Z,99656.66
2022-11-17T13:20:57.110Z,99660.38
2022-11-17T13:23:01.216Z,99656.38
2022-11-17T13:25:18.829Z,99630.81
2022-11-17T13:27:23.156Z,99655.66
2022-11-17T13:29:24.922Z,99648.81
2022-11-17T13:31:26.796Z,99641.38
2022-11-17T13:33:28.941Z,99630.03
2022-11-17T13:35:32.606Z,99628.72
2022-11-17T13:37:34.348Z,99638.97
2022-11-17T13:39:37.379Z,99633.91
2022-11-17T13:41:39.604Z,99634.16
2022-11-17T13:43:41.833Z,99643.78
2022-11-17T13:45:43.726Z,99639.44
2022-11-17T13:47:47.224Z,99639.00
2022-11-17T13:49:48.921Z,99635.22
2022-11-17T13:51:50.524Z,99643.69
2022-11-17T13:53:54.797Z,99656.41
2022-11-17T13:55:57.866Z,99644.56
2022-11-17T13:58:02.247Z,99645.91
2022-11-17T14:00:04.944Z,99636.72
2022-11-17T14:02:24.406Z,99661.41
2022-11-17T14:04:26.386Z,99643.56
2022-11-17T14:06:53.199Z,99634.88
2022-11-17T14:09:05.294Z,99632.84
2022-11-17T14:11:16.100Z,99624.94
2022-11-17T14:13:29.225Z,99628.34
2022-11-17T14:15:33.715Z,99632.75
2022-11-17T14:17:35.453Z,99630.91
2022-11-17T14:19:37.091Z,99634.78
2022-11-17T14:21:56.930Z,99624.16
2022-11-17T14:24:11.372Z,99619.50
2022-11-17T14:26:19.127Z,99619.03
2022-11-17T14:28:22.234Z,99628.88
2022-11-17T14:30:23.808Z,99631.16
2022-11-17T14:32:25.350Z,99633.09
2022-11-17T14:34:26.895Z,99635.16
2022-11-17T14:36:29.256Z,99626.63
2022-11-17T14:38:30.796Z,99613.09
2022-11-17T14:40:33.743Z,99614.31
2022-11-17T14:42:36.350Z,99639.34
2022-11-17T14:44:38.418Z,99636.31
2022-11-17T14:46:40.216Z,99646.31
2022-11-17T14:48:41.727Z,99625.38
2022-11-17T14:50:43.710Z,99642.59
2022-11-17T14:52:45.925Z,99635.31
2022-11-17T14:54:47.615Z,99628.34
2022-11-17T14:56:50.325Z,99634.53
2022-11-17T14:58:54.373Z,99637.03
2022-11-17T15:00:55.946Z,99618.75
2022-11-17T15:02:57.992Z,99637.63
2022-11-17T15:05:00.298Z,99633.91
2022-11-17T15:07:02.091Z,99627.72
2022-11-17T15:09:04.258Z,99637.91
2022-11-17T15:11:06.482Z,99630.31
2022-11-17T15:13:09.406Z,99632.94
2022-11-17T15:15:11.163Z,99629.06
2022-11-17T15:17:14.301Z,99615.84
2022-11-17T15:19:16.542Z,99637.00
2022-11-17T15:21:18.118Z,99634.78
2022-11-17T15:23:19.724Z,99637.22
2022-11-17T15:25:21.283Z,99637.38
2022-11-17T15:27:22.859Z,99634.66
2022-11-17T15:29:25.740Z,99642.22
2022-11-17T15:31:27.712Z,99640.06
2022-11-17T15:33:29.233Z,99641.94
2022-11-17T15:35:30.780Z,99645.78
2022-11-17T15:37:32.401Z,99626.97
2022-11-17T15:39:33.982Z,99635.53
2022-11-17T15:41:35.502Z,99629.19
2022-11-17T15:43:38.992Z,99632.53
2022-11-17T15:45:41.915Z,99637.81
2022-11-17T15:47:43.431Z,99632.94
2022-11-17T15:49:47.531Z,99635.72
2022-11-17T15:51:49.145Z,99637.69
2022-11-17T15:53:53.037Z,99636.91
2022-11-17T15:55:54.762Z,99651.00
2022-11-17T15:57:56.097Z,99634.56
2022-11-17T15:59:57.733Z,99634.41
2022-11-17T16:02:07.500Z,99632.06
2022-11-17T16:04:11.214Z,99629.50
2022-11-17T16:06:12.988Z,99632.06
2022-11-17T16:08:14.724Z,99636.19
2022-11-17T16:10:16.084Z,99631.56
2022-11-17T16:12:17.673Z,99629.78
2022-11-17T16:14:19.032Z,99630.50
2022-11-17T16:16:20.993Z,99638.41
2022-11-17T16:18:24.175Z,99636.91
2022-11-17T16:20:25.802Z,99623.22
2022-11-17T16:22:27.175Z,99633.91
2022-11-17T16:24:28.683Z,99637.03
2022-11-17T16:26:31.118Z,99619.72
2022-11-17T16:28:32.724Z,99624.44
2022-11-17T16:30:35.715Z,99630.63
2022-11-17T16:32:39.902Z,99626.63
2022-11-17T16:34:42.799Z,99631.50
2022-11-17T16:36:44.735Z,99631.19
2022-11-17T16:39:00.416Z,99622.09
2022-11-17T16:41:02.767Z,99636.97
2022-11-17T16:43:04.183Z,99625.63
2022-11-17T16:45:06.634Z,99625.63
2022-11-17T16:47:08.189Z,99622.00
2022-11-17T16:49:11.792Z,99629.34
2022-11-17T16:51:15.128Z,99628.41
2022-11-17T16:53:16.657Z,99621.22
2022-11-17T16:55:18.318Z,99624.72
2022-11-17T16:57:19.696Z,99617.66
2022-11-17T16:59:21.277Z,99622.09
2022-11-17T17:01:26.278Z,99612.69
2022-11-17T17:03:27.805Z,99623.94
2022-11-17T17:05:29.374Z,99622.94
2022-11-17T17:07:32.333Z,99624.72
2022-11-17T17:09:33.901Z,99617.88
2022-11-17T17:11:36.597Z,99639.31
2022-11-17T17:13:38.753Z,99627.84
2022-11-17T17:15:40.303Z,99627.63
2022-11-17T17:17:41.838Z,99624.53
2022-11-17T17:19:43.362Z,99636.19
2022-11-17T17:21:44.944Z,99615.53
2022-11-17T17:23:47.884Z,99625.50
2022-11-17T17:25:49.454Z,99623.41
2022-11-17T17:27:51.109Z,99633.16
2022-11-17T17:29:52.457Z,99627.91
2022-11-17T17:31:53.994Z,99611.22
2022-11-17T17:33:55.554Z,99619.50
2022-11-17T17:36:01.511Z,99625.28
2022-11-17T17:38:03.058Z,99625.22
2022-11-17T17:40:07.776Z,99626.28
2022-11-17T17:42:09.306Z,99632.50
2022-11-17T17:44:15.354Z,99639.88
2022-11-17T17:46:19.870Z,99641.53
2022-11-17T17:48:21.375Z,99637.25
2022-11-17T17:50:22.971Z,99635.28
2022-11-17T17:52:24.527Z,99637.78
2022-11-17T17:54:26.125Z,99631.63
2022-11-17T17:56:29.353Z,99631.25
2022-11-17T17:58:32.146Z,99632.78
2022-11-17T18:00:33.697Z,99635.97
2022-11-17T18:02:35.272Z,99635.81
2022-11-17T18:04:36.897Z,99640.69
2022-11-17T18:06:40.598Z,99634.63
2022-11-17T18:08:42.711Z,99639.84
2022-11-17T18:10:44.313Z,99638.31
2022-11-17T18:12:47.207Z,99638.66
2022-11-17T18:14:48.723Z,99636.06
2022-11-17T18:16:50.840Z,99641.09
2022-11-17T18:18:56.780Z,99634.47
2022-11-17T18:20:59.725Z,99627.91
2022-11-17T18:23:01.387Z,99643.38
2022-11-17T18:25:07.368Z,99634.34
2022-11-17T18:27:09.333Z,99640.66
2022-11-17T18:29:15.691Z,99637.91
2022-11-17T18:31:17.530Z,99635.88
2022-11-17T18:33:19.064Z,99636.88
2022-11-17T18:35:20.841Z,99631.66
2022-11-17T18:37:22.519Z,99643.78
2022-11-17T18:39:24.643Z,99651.00
2022-11-17T18:41:27.308Z,99648.56
2022-11-17T18:43:29.796Z,99648.84
2022-11-17T18:45:36.398Z,99648.16
2022-11-17T18:47:37.948Z,99647.13
2022-11-17T18:49:39.474Z,99643.44
2022-11-17T18:51:41.156Z,99651.13
2022-11-17T18:53:42.536Z,99653.50
2022-11-17T18:55:44.069Z,99657.53
2022-11-17T18:57:46.207Z,99657.53
2022-11-17T18:59:47.857Z,99661.53
2022-11-17T19:01:50.808Z,99649.28
2022-11-17T19:03:54.479Z,99661.97
2022-11-17T19:05:56.053Z,99654.75
2022-11-17T19:07:57.587Z,99658.22
2022-11-17T19:09:59.118Z,99659.63
2022-11-17T19:12:00.728Z,99662.09
2022-11-17T19:14:02.856Z,99655.72
2022-11-17T19:16:05.947Z,99656.72
2022-11-17T19:18:08.882Z,99646.84
2022-11-17T19:20:10.869Z,99643.22
2022-11-17T19:22:12.462Z,99651.84
2022-11-17T19:24:14.089Z,99650.25
2022-11-17T19:26:17.802Z,99641.19
2022-11-17T19:28:19.322Z,99643.53
2022-11-17T19:30:20.981Z,99659.91
2022-11-17T19:32:22.628Z,99658.94
2022-11-17T19:34:25.552Z,99655.66
2022-11-17T19:36:29.044Z,99655.38
2022-11-17T19:38:31.422Z,99651.97
2022-11-17T19:40:33.220Z,99667.75
2022-11-17T19:42:34.897Z,99656.97
2022-11-17T19:44:36.544Z,99656.72
2022-11-17T19:46:37.878Z,99666.13
2022-11-17T19:48:40.374Z,99656.72
2022-11-17T19:50:43.373Z,99661.84
2022-11-17T19:52:44.918Z,99656.47
2022-11-17T19:54:46.525Z,99657.50
2022-11-17T19:56:48.217Z,99644.59
2022-11-17T19:58:50.526Z,99663.94
2022-11-17T20:00:52.132Z,99654.78
2022-11-17T20:02:56.836Z,99667.63
2022-11-17T20:04:58.390Z,99678.28
2022-11-17T20:07:03.788Z,99674.06
2022-11-17T20:09:07.016Z,99679.31
2022-11-17T20:11:10.205Z,99663.13
2022-11-17T20:13:11.842Z,99675.09
2022-11-17T20:15:33.040Z,99679.44
2022-11-17T20:17:35.114Z,99680.75
2022-11-17T20:19:36.727Z,99677.19
2022-11-17T20:21:38.444Z,99684.41
2022-11-17T20:23:41.539Z,99687.97
2022-11-17T20:25:43.101Z,99668.75
2022-11-17T20:27:44.604Z,99682.88
2022-11-17T20:29:46.139Z,99684.41
2022-11-17T20:31:47.749Z,99693.53
2022-11-17T20:33:49.268Z,99687.91
2022-11-17T20:35:50.891Z,99689.69
2022-11-17T20:37:52.569Z,99691.94
2022-11-17T20:39:55.595Z,99689.59
2022-11-17T20:41:57.123Z,99684.91
2022-11-17T20:44:00.207Z,99680.09
2022-11-17T20:46:02.682Z,99681.25
2022-11-17T20:48:07.178Z,99684.09
2022-11-17T20:50:09.027Z,99688.69
2022-11-17T20:52:13.396Z,99675.66
2022-11-17T20:54:15.482Z,99693.03
2022-11-17T20:56:19.082Z,99677.38
2022-11-17T20:58:20.649Z,99681.78
2022-11-17T21:00:22.168Z,99673.72
2022-11-17T21:02:23.950Z,99687.41
2022-11-17T21:04:25.284Z,99686.44
2022-11-17T21:06:27.000Z,99680.56
2022-11-17T21:08:29.729Z,99691.09
2022-11-17T21:10:31.287Z,99692.78
2022-11-17T21:12:34.179Z,99691.09
2022-11-17T21:14:35.774Z,99695.47
2022-11-17T21:16:37.538Z,99691.03
2022-11-17T21:18:44.306Z,99690.34
2022-11-17T21:20:45.835Z,99699.66
2022-11-17T21:22:47.482Z,99691.31
2022-11-17T21:24:48.989Z,99698.16
2022-11-17T21:26:50.620Z,99707.09
2022-11-17T21:28:53.699Z,99706.16
2022-11-17T21:31:02.278Z,99700.00
2022-11-17T21:33:03.822Z,99698.41
2022-11-17T21:35:05.724Z,99700.91
2022-11-17T21:37:07.352Z,99677.63
2022-11-17T21:39:08.963Z,99713.81
2022-11-17T21:41:15.107Z,99691.66
2022-11-17T21:43:16.670Z,99696.06
2022-11-17T21:45:19.613Z,99708.19
2022-11-17T21:47:21.138Z,99712.63
2022-11-17T21:49:22.689Z,99718.19
2022-11-17T21:51:25.837Z,99699.31
2022-11-17T21:53:28.140Z,99720.47
2022-11-17T21:55:29.920Z,99710.97
2022-11-17T21:57:31.241Z,99713.56
2022-11-17T21:59:32.793Z,99724.44
2022-11-17T22:01:36.269Z,99711.44
2022-11-17T22:03:38.715Z,99717.13
2022-11-17T22:05:40.308Z,99711.75
2022-11-17T22:07:41.913Z,99716.44
2022-11-17T22:09:43.542Z,99717.66
2022-11-17T22:11:45.049Z,99719.50
2022-11-17T22:13:46.583Z,99716.00
2022-11-17T22:15:48.136Z,99717.09
2022-11-17T22:17:51.021Z,99720.75
2022-11-17T22:19:52.543Z,99726.41
2022-11-17T22:21:56.764Z,99721.03
2022-11-17T22:24:01.340Z,99732.50
2022-11-17T22:26:05.686Z,99716.34
2022-11-17T22:28:07.237Z,99718.97
2022-11-17T22:30:09.759Z,99723.16
2022-11-17T22:32:11.277Z,99724.81
2022-11-17T22:34:14.629Z,99723.19
2022-11-17T22:36:16.784Z,99720.88
2022-11-17T22:38:18.339Z,99727.44
2022-11-17T22:40:20.112Z,99731.72
2022-11-17T22:42:21.437Z,99728.22
2022-11-17T22:44:22.934Z,99734.34
2022-11-17T22:46:26.707Z,99704.91
2022-11-17T22:48:28.343Z,99736.78
2022-11-17T22:50:31.657Z,99734.16
2022-11-17T22:52:33.201Z,99742.91
2022-11-17T22:54:35.075Z,99742.38
2022-11-17T22:56:36.624Z,99743.28
2022-11-17T22:58:38.163Z,99746.72
2022-11-17T23:00:39.707Z,99727.19
2022-11-17T23:02:41.234Z,99734.13
2022-11-17T23:04:42.891Z,99736.06
2022-11-17T23:06:45.914Z,99716.47
2022-11-17T23:08:47.449Z,99743.19
2022-11-17T23:10:49.017Z,99737.94
2022-11-17T23:12:51.101Z,99744.16
2022-11-17T23:14:52.648Z,99733.59
2022-11-17T23:16:54.196Z,99743.28
2022-11-17T23:18:56.526Z,99740.09
2022-11-17T23:20:58.176Z,99749.75
2022-11-17T23:23:15.228Z,99749.06
2022-11-17T23:25:16.891Z,99740.28
2022-11-17T23:27:18.575Z,99736.56
2022-11-17T23:29:20.278Z,99733.19
2022-11-17T23:31:21.828Z,99722.06
2022-11-17T23:33:23.367Z,99727.53
2022-11-17T23:35:25.005Z,99737.28
2022-11-17T23:37:28.047Z,99733.75
2022-11-17T23:39:30.960Z,99752.03
2022-11-17T23:41:32.542Z,99751.91
2022-11-17T23:43:34.098Z,99759.84
2022-11-17T23:45:35.588Z,99772.31
2022-11-17T23:47:37.176Z,99769.22
2022-11-17T23:49:38.731Z,99775.97
2022-11-17T23:51:40.335Z,99773.03
2022-11-17T23:53:42.395Z,99777.78
2022-11-17T23:55:53.719Z,99773.25
2022-11-17T23:57:55.233Z,99767.41
2022-11-17T23:59:56.900Z,99772.13
